Time;durP1;ratioP1;P1;durP2;ratioP2;P2;SDS_P1;SDS_P2;PMS_P1;PMS_P2;Temp;Humidity;BMP_temperature;BMP_pressure;BME280_temperature;BME280_humidity;BME280_pressure;Samples;Min_cycle;Max_cycle;Signal;HPM_P1;HPM_P2
2024/01/28 00:01:45;;;;;;;13.15;8.13;;;1.10;99.90;;;;;;5080013;28;20031;-90
2024/01/28 00:04:11;;;;;;;20.25;10.45;;;1.10;99.90;;;;;;5064930;28;20035;-90
2024/01/28 00:06:37;;;;;;;14.18;9.40;;;1.10;99.90;;;;;;5064539;28;20096;-89
2024/01/28 00:09:02;;;;;;;21.00;9.48;;;1.00;99.90;;;;;;5080752;28;20031;-90
2024/01/28 00:11:28;;;;;;;17.02;9.70;;;1.00;99.90;;;;;;5081320;28;20507;-90
2024/01/28 00:13:54;;;;;;;16.55;9.80;;;1.00;99.90;;;;;;5081671;28;20020;-90
2024/01/28 00:16:20;;;;;;;14.98;7.75;;;1.00;99.90;;;;;;5082210;28;20027;-92
2024/01/28 00:18:46;;;;;;;16.30;8.65;;;0.90;99.90;;;;;;5061354;28;20491;-89
2024/01/28 00:21:11;;;;;;;14.80;9.40;;;0.90;99.90;;;;;;5080039;28;20027;-90
2024/01/28 00:23:37;;;;;;;17.15;9.10;;;0.90;99.90;;;;;;5080229;28;20036;-89
2024/01/28 00:26:04;;;;;;;14.95;8.77;;;0.80;99.90;;;;;;5062337;28;20162;-91
2024/01/28 00:28:30;;;;;;;10.75;7.68;;;0.80;99.90;;;;;;5062643;28;20024;-88
2024/01/28 00:30:56;;;;;;;14.02;8.82;;;0.60;99.90;;;;;;5057900;28;20025;-89
2024/01/28 00:33:22;;;;;;;14.88;9.25;;;0.60;99.90;;;;;;5060878;28;20027;-92
2024/01/28 00:35:47;;;;;;;12.98;8.23;;;0.60;99.90;;;;;;5061241;28;20078;-90
2024/01/28 00:38:13;;;;;;;14.02;8.15;;;0.60;99.90;;;;;;5079025;28;20021;-89
2024/01/28 00:40:39;;;;;;;15.68;8.77;;;0.50;99.90;;;;;;5079608;28;20016;-91
2024/01/28 00:43:07;;;;;;;17.75;10.43;;;0.50;99.90;;;;;;5079606;28;20025;-88
2024/01/28 00:45:33;;;;;;;15.18;10.40;;;0.40;99.90;;;;;;5080329;28;20107;-91
2024/01/28 00:47:59;;;;;;;13.48;9.13;;;0.40;99.90;;;;;;5083477;28;20113;-90
2024/01/28 00:50:25;;;;;;;11.82;7.90;;;0.40;99.90;;;;;;5049679;28;20049;-90
2024/01/28 00:52:51;;;;;;;16.33;9.90;;;0.30;99.90;;;;;;5046177;28;20127;-91
2024/01/28 00:55:16;;;;;;;11.30;8.13;;;0.30;99.90;;;;;;5061148;28;20035;-92
2024/01/28 00:57:45;;;;;;;14.45;9.57;;;0.30;99.90;;;;;;5083148;28;20413;-92
2024/01/28 01:00:11;;;;;;;15.80;10.07;;;0.20;99.90;;;;;;5065967;28;20025;-90
2024/01/28 01:02:37;;;;;;;14.20;9.10;;;0.10;99.90;;;;;;5083424;28;20032;-91
2024/01/28 01:05:03;;;;;;;15.32;9.48;;;0.10;99.90;;;;;;5061626;28;20052;-90
2024/01/28 01:07:29;;;;;;;15.82;9.77;;;0.00;99.90;;;;;;5059608;28;20090;-91
2024/01/28 01:09:55;;;;;;;15.13;9.27;;;-0.10;99.90;;;;;;5074519;28;20039;-90
2024/01/28 01:12:20;;;;;;;16.10;9.98;;;-0.10;99.90;;;;;;5065351;28;20380;-90
2024/01/28 01:14:46;;;;;;;16.15;9.63;;;0.00;99.90;;;;;;5083249;28;20025;-91
2024/01/28 01:17:11;;;;;;;16.77;9.98;;;-0.10;99.90;;;;;;5083219;28;20027;-91
2024/01/28 01:19:37;;;;;;;16.58;9.98;;;-0.10;99.90;;;;;;5083301;28;20021;-91
2024/01/28 01:22:03;;;;;;;16.90;9.85;;;0.00;99.90;;;;;;5065112;28;20115;-90
2024/01/28 01:24:31;;;;;;;15.05;9.38;;;0.00;99.90;;;;;;5065122;28;20025;-91
2024/01/28 01:26:56;;;;;;;13.35;8.90;;;0.00;99.90;;;;;;5066377;28;20035;-89
2024/01/28 01:29:22;;;;;;;14.55;10.30;;;0.00;99.90;;;;;;5065397;28;20028;-90
2024/01/28 01:31:48;;;;;;;14.02;10.48;;;-0.10;99.90;;;;;;5053892;28;20025;-90
2024/01/28 01:34:14;;;;;;;23.42;10.13;;;-0.20;99.90;;;;;;5051633;28;20086;-91
2024/01/28 01:36:44;;;;;;;13.20;9.00;;;-0.10;99.90;;;;;;5064731;28;20546;-91
2024/01/28 01:39:10;;;;;;;14.45;9.85;;;-0.20;99.90;;;;;;5064531;28;20030;-91
2024/01/28 01:41:36;;;;;;;16.83;9.88;;;-0.20;99.90;;;;;;5064406;28;20517;-90
2024/01/28 01:44:02;;;;;;;15.00;10.30;;;-0.30;99.90;;;;;;5050563;28;20498;-91
2024/01/28 01:46:29;;;;;;;11.55;8.23;;;-0.30;99.90;;;;;;5079099;28;20024;-90
2024/01/28 01:48:55;;;;;;;15.50;10.13;;;-0.30;99.90;;;;;;5082320;28;20051;-91
2024/01/28 01:51:23;;;;;;;13.82;9.07;;;-0.30;99.90;;;;;;5082374;28;20036;-91
2024/01/28 01:53:50;;;;;;;15.68;10.35;;;-0.30;99.90;;;;;;5057272;28;20028;-90
2024/01/28 01:56:16;;;;;;;16.85;10.00;;;-0.30;99.90;;;;;;5082452;28;20024;-89
2024/01/28 01:58:44;;;;;;;17.08;10.52;;;-0.30;99.90;;;;;;5083234;28;20040;-90
2024/01/28 02:01:11;;;;;;;12.25;8.80;;;-0.30;99.90;;;;;;5082701;28;20037;-90
2024/01/28 02:03:37;;;;;;;16.15;10.00;;;-0.40;99.90;;;;;;5084169;28;20478;-91
2024/01/28 02:06:05;;;;;;;14.18;8.52;;;-0.40;99.90;;;;;;5066011;28;20020;-91
2024/01/28 02:08:31;;;;;;;12.45;8.10;;;-0.40;99.90;;;;;;5066182;28;20049;-92
2024/01/28 02:10:57;;;;;;;16.40;9.40;;;-0.40;99.90;;;;;;5065643;28;20025;-91
2024/01/28 02:13:23;;;;;;;17.35;9.50;;;-0.40;99.90;;;;;;5066073;28;20039;-91
2024/01/28 02:15:48;;;;;;;18.02;9.75;;;-0.50;99.90;;;;;;5085483;28;20025;-88
2024/01/28 02:18:14;;;;;;;11.35;9.55;;;-0.50;99.90;;;;;;5078787;28;20020;-91
2024/01/28 02:20:42;;;;;;;13.48;9.13;;;-0.50;99.90;;;;;;5076452;28;20101;-94
2024/01/28 02:23:08;;;;;;;16.25;10.95;;;-0.50;99.90;;;;;;5068876;28;20033;-92
2024/01/28 02:25:34;;;;;;;12.95;9.65;;;-0.50;99.90;;;;;;5063673;28;20053;-91
2024/01/28 02:28:00;;;;;;;15.93;9.13;;;-0.50;99.90;;;;;;5083042;28;20435;-89
2024/01/28 02:30:26;;;;;;;13.27;9.65;;;-0.60;99.90;;;;;;5060808;28;20027;-91
2024/01/28 02:32:55;;;;;;;15.82;9.48;;;-0.60;99.90;;;;;;5060780;28;20032;-90
2024/01/28 02:35:21;;;;;;;19.33;10.90;;;-0.60;99.90;;;;;;5063774;28;20028;-91
2024/01/28 02:37:47;;;;;;;12.60;9.43;;;-0.60;99.90;;;;;;5063421;28;20025;-91
2024/01/28 02:40:14;;;;;;;15.15;9.13;;;-0.60;99.90;;;;;;5061572;28;20021;-91
2024/01/28 02:42:48;;;;;;;14.85;9.73;;;-0.50;99.90;;;;;;5061264;28;20029;-91
2024/01/28 02:45:14;;;;;;;;;;;-0.50;99.90;;;;;;5075025;28;20115;-90
2024/01/28 02:47:45;;;;;;;11.80;8.15;;;-0.60;99.90;;;;;;5065389;28;20405;-90
2024/01/28 02:50:13;;;;;;;16.30;9.57;;;-0.60;99.90;;;;;;5059773;28;20033;-90
2024/01/28 02:52:39;;;;;;;15.43;8.82;;;-0.60;99.90;;;;;;5081073;28;20107;-90
2024/01/28 02:55:06;;;;;;;14.60;9.40;;;-0.60;99.90;;;;;;5065400;28;20025;-90
2024/01/28 02:57:34;;;;;;;16.20;10.43;;;-0.60;99.90;;;;;;5046980;28;20071;-91
2024/01/28 03:00:02;;;;;;;;;;;-0.60;99.90;;;;;;5062501;28;20048;-92
2024/01/28 03:02:39;;;;;;;15.88;9.45;;;-0.70;99.90;;;;;;5064579;28;19930;-91
2024/01/28 03:05:08;;;;;;;14.18;9.93;;;-0.60;99.90;;;;;;5084047;28;20076;-91
2024/01/28 03:07:35;;;;;;;14.13;7.90;;;-0.60;99.90;;;;;;5067118;28;20035;-90
2024/01/28 03:10:01;;;;;;;17.23;10.57;;;-0.70;99.90;;;;;;5045614;28;20068;-90
2024/01/28 03:12:27;;;;;;;13.23;9.60;;;-0.70;99.90;;;;;;5048923;28;20044;-88
2024/01/28 03:14:54;;;;;;;23.40;10.38;;;-0.70;99.90;;;;;;5064843;28;20097;-90
2024/01/28 03:17:23;;;;;;;13.45;8.98;;;-0.70;99.90;;;;;;5064539;28;20036;-90
2024/01/28 03:19:49;;;;;;;16.58;10.20;;;-0.70;99.90;;;;;;5083415;28;20081;-90
2024/01/28 03:22:15;;;;;;;13.63;9.50;;;-0.80;99.90;;;;;;5064957;28;20087;-90
2024/01/28 03:24:41;;;;;;;18.95;10.25;;;-0.80;99.90;;;;;;5063906;28;20028;-91
2024/01/28 03:27:10;;;;;;;16.60;11.05;;;-0.90;99.90;;;;;;5046957;28;20043;-92
2024/01/28 03:29:39;;;;;;;15.00;10.07;;;-0.90;99.90;;;;;;5064730;28;20021;-91
2024/01/28 03:32:05;;;;;;;15.55;11.68;;;-0.90;99.90;;;;;;5063378;28;20047;-90
2024/01/28 03:34:32;;;;;;;13.55;9.27;;;-0.80;99.90;;;;;;5060524;28;20051;-89
2024/01/28 03:37:01;;;;;;;13.90;9.52;;;-0.90;99.90;;;;;;5060379;28;20063;-91
2024/01/28 03:39:33;;;;;;;12.98;8.90;;;-0.90;99.90;;;;;;5061950;28;20049;-90
2024/01/28 03:42:00;;;;;;;16.27;9.07;;;-0.90;99.90;;;;;;5064278;28;20020;-90
2024/01/28 03:44:29;;;;;;;13.80;8.50;;;-1.00;99.90;;;;;;5063212;28;20029;-91
2024/01/28 03:46:55;;;;;;;18.30;9.25;;;-1.10;99.90;;;;;;5061460;28;20021;-90
2024/01/28 03:49:27;;;;;;;15.30;10.82;;;-1.10;99.90;;;;;;5061710;28;20021;-90
2024/01/28 03:51:53;;;;;;;15.63;9.40;;;-1.10;99.90;;;;;;5073264;28;20020;-90
2024/01/28 03:54:22;;;;;;;15.55;9.50;;;-1.10;99.90;;;;;;5064253;28;20025;-89
2024/01/28 03:56:48;;;;;;;14.98;8.45;;;-1.20;99.90;;;;;;5061429;28;20024;-91
2024/01/28 03:59:16;;;;;;;18.13;11.18;;;-1.20;99.90;;;;;;5063199;28;20025;-89
2024/01/28 04:01:42;;;;;;;12.82;8.68;;;-1.20;99.90;;;;;;5062709;28;20054;-91
2024/01/28 04:04:10;;;;;;;15.68;9.30;;;-1.20;99.90;;;;;;5062666;28;20025;-91
2024/01/28 04:06:47;;;;;;;17.73;9.10;;;-1.20;99.90;;;;;;5061063;28;20021;-89
2024/01/28 04:09:15;;;;;;;15.00;9.95;;;-1.10;99.90;;;;;;5061389;28;20031;-90
2024/01/28 04:11:41;;;;;;;17.65;8.95;;;-1.10;99.90;;;;;;5060718;28;20534;-90
2024/01/28 04:14:13;;;;;;;17.58;8.95;;;-1.20;99.90;;;;;;5060793;28;20040;-90
2024/01/28 04:16:39;;;;;;;15.40;9.00;;;-1.20;99.90;;;;;;5062677;28;20423;-91
2024/01/28 04:19:05;;;;;;;17.38;9.63;;;-1.20;99.90;;;;;;5065639;28;20028;-89
2024/01/28 04:21:36;;;;;;;20.52;10.43;;;-1.10;99.90;;;;;;5065384;28;20024;-91
2024/01/28 04:24:02;;;;;;;14.73;10.88;;;-1.00;99.90;;;;;;5068260;28;20107;-91
2024/01/28 04:26:31;;;;;;;16.83;9.20;;;-1.10;99.90;;;;;;5088475;28;20374;-92
2024/01/28 04:28:57;;;;;;;18.52;12.98;;;-1.10;99.90;;;;;;5086917;28;20032;-91
2024/01/28 04:31:26;;;;;;;16.48;9.95;;;-1.10;99.90;;;;;;5085617;28;20507;-91
2024/01/28 04:33:54;;;;;;;22.08;9.00;;;-1.10;99.90;;;;;;5086171;28;20089;-89
2024/01/28 04:36:21;;;;;;;15.60;10.50;;;-1.10;99.90;;;;;;5067868;28;20036;-90
2024/01/28 04:38:48;;;;;;;16.67;9.48;;;-1.20;99.90;;;;;;5086925;28;20039;-90
2024/01/28 04:41:16;;;;;;;14.80;9.80;;;-1.20;99.90;;;;;;5068249;28;20073;-90
2024/01/28 04:43:42;;;;;;;15.98;9.18;;;-1.30;99.90;;;;;;5067749;28;20021;-91
2024/01/28 04:46:13;;;;;;;16.02;9.57;;;-1.30;99.90;;;;;;5068496;28;20120;-90
2024/01/28 04:48:39;;;;;;;13.93;9.68;;;-1.40;99.90;;;;;;5069424;28;20028;-91
2024/01/28 04:51:06;;;;;;;18.25;9.90;;;-1.40;99.90;;;;;;5086145;28;20024;-89
2024/01/28 04:53:38;;;;;;;12.80;8.98;;;-1.40;99.90;;;;;;5058545;28;20025;-92
2024/01/28 04:56:04;;;;;;;15.43;9.30;;;-1.40;99.90;;;;;;5066427;28;20105;-91
2024/01/28 04:58:30;;;;;;;15.68;9.15;;;-1.40;99.90;;;;;;5064685;28;20025;-91
2024/01/28 05:00:56;;;;;;;15.38;10.10;;;-1.40;99.90;;;;;;5067573;28;20092;-91
2024/01/28 05:03:22;;;;;;;17.50;9.35;;;-1.40;99.90;;;;;;5068107;28;20137;-91
2024/01/28 05:05:48;;;;;;;14.68;10.52;;;-1.40;99.90;;;;;;5067952;28;20032;-90
2024/01/28 05:08:14;;;;;;;18.58;9.57;;;-1.40;99.90;;;;;;5085797;28;20467;-92
2024/01/28 05:10:43;;;;;;;18.63;12.13;;;-1.40;99.90;;;;;;5068032;28;20040;-90
2024/01/28 05:13:15;;;;;;;16.23;11.35;;;-1.40;99.90;;;;;;5086234;28;20032;-90
2024/01/28 05:15:43;;;;;;;14.43;10.52;;;-1.40;99.90;;;;;;5068645;28;20398;-90
2024/01/28 05:18:09;;;;;;;15.80;9.85;;;-1.40;99.90;;;;;;5067940;28;20024;-92
2024/01/28 05:20:36;;;;;;;15.70;9.13;;;-1.50;99.90;;;;;;5068507;28;20024;-91
2024/01/28 05:23:05;;;;;;;17.27;9.65;;;-1.50;99.90;;;;;;5086130;28;20063;-90
2024/01/28 05:25:32;;;;;;;14.63;10.23;;;-1.60;99.90;;;;;;5086498;28;20066;-90
2024/01/28 05:28:00;;;;;;;15.20;9.95;;;-1.60;99.90;;;;;;5068617;28;20040;-92
2024/01/28 05:30:29;;;;;;;11.77;8.35;;;-1.60;99.90;;;;;;5067891;28;20032;-90
2024/01/28 05:32:55;;;;;;;14.07;8.50;;;-1.60;99.90;;;;;;5067391;28;20029;-91
2024/01/28 05:35:21;;;;;;;13.38;9.20;;;-1.70;99.90;;;;;;5067718;28;20051;-88
2024/01/28 05:37:47;;;;;;;12.60;8.93;;;-1.70;99.90;;;;;;5068349;28;20031;-90
2024/01/28 05:40:13;;;;;;;12.02;8.63;;;-1.70;99.90;;;;;;5067186;28;20042;-91
2024/01/28 05:42:38;;;;;;;13.07;9.20;;;-1.70;99.90;;;;;;5068562;28;20016;-91
2024/01/28 05:45:05;;;;;;;15.45;10.88;;;-1.70;99.90;;;;;;5068275;28;20092;-91
2024/01/28 05:47:31;;;;;;;14.20;9.75;;;-1.70;99.90;;;;;;5085901;28;20035;-88
2024/01/28 05:49:56;;;;;;;14.63;9.63;;;-1.80;99.90;;;;;;5085685;28;20099;-90
2024/01/28 05:52:23;;;;;;;13.32;9.48;;;-1.80;99.90;;;;;;5085227;28;20020;-91
2024/01/28 05:54:51;;;;;;;15.20;10.38;;;-1.90;99.90;;;;;;5068240;28;20033;-90
2024/01/28 05:57:19;;;;;;;17.02;9.85;;;-1.90;99.90;;;;;;5070545;28;20112;-91
2024/01/28 05:59:45;;;;;;;14.25;9.02;;;-1.90;99.90;;;;;;5069649;28;20021;-89
2024/01/28 06:02:13;;;;;;;14.40;8.75;;;-1.90;99.90;;;;;;5067171;28;20024;-90
2024/01/28 06:04:40;;;;;;;12.82;9.02;;;-1.80;99.90;;;;;;5066861;28;20123;-89
2024/01/28 06:07:05;;;;;;;13.75;8.75;;;-1.90;99.90;;;;;;5085139;28;20028;-91
2024/01/28 06:09:31;;;;;;;14.77;8.95;;;-1.90;99.90;;;;;;5067923;28;20040;-91
2024/01/28 06:11:58;;;;;;;17.08;10.13;;;-1.90;99.90;;;;;;5067772;28;20036;-90
2024/01/28 06:14:24;;;;;;;15.32;9.55;;;-2.00;99.90;;;;;;5067311;28;20024;-89
2024/01/28 06:16:50;;;;;;;13.93;8.68;;;-2.10;99.90;;;;;;5067264;28;20043;-91
2024/01/28 06:19:16;;;;;;;14.52;9.15;;;-2.10;99.90;;;;;;5068078;28;20021;-90
2024/01/28 06:21:42;;;;;;;12.55;8.55;;;-2.10;99.90;;;;;;5066857;28;20020;-91
2024/01/28 06:24:08;;;;;;;16.08;9.68;;;-2.10;99.90;;;;;;5066384;28;20420;-91
2024/01/28 06:26:36;;;;;;;17.20;9.30;;;-2.20;99.90;;;;;;5067433;28;20029;-89
2024/01/28 06:29:03;;;;;;;14.52;8.90;;;-2.20;99.90;;;;;;5067179;28;20024;-90
2024/01/28 06:31:29;;;;;;;14.98;8.35;;;-2.20;99.90;;;;;;5084659;28;20066;-90
2024/01/28 06:33:55;;;;;;;12.63;8.32;;;-2.20;99.90;;;;;;5067623;28;20028;-91
2024/01/28 06:36:21;;;;;;;15.68;9.90;;;-2.20;99.90;;;;;;5067017;28;20042;-89
2024/01/28 06:38:47;;;;;;;12.63;8.65;;;-2.10;99.90;;;;;;5067045;28;20025;-90
2024/01/28 06:41:15;;;;;;;14.52;8.82;;;-2.10;99.90;;;;;;5084443;28;20063;-90
2024/01/28 06:43:41;;;;;;;14.60;8.95;;;-2.10;99.90;;;;;;5067350;28;20046;-91
2024/01/28 06:46:08;;;;;;;15.70;9.20;;;-2.10;99.90;;;;;;5066858;28;20029;-90
2024/01/28 06:48:34;;;;;;;16.83;11.15;;;-2.10;99.90;;;;;;5086709;28;20048;-90
2024/01/28 06:51:05;;;;;;;14.20;9.18;;;-2.20;99.90;;;;;;5066981;28;20020;-91
2024/01/28 06:53:31;;;;;;;13.15;8.30;;;-2.20;99.90;;;;;;5086915;28;20051;-89
2024/01/28 06:56:00;;;;;;;17.38;9.63;;;-2.20;99.90;;;;;;5068787;28;20024;-89
2024/01/28 06:58:26;;;;;;;13.98;8.82;;;-2.20;99.90;;;;;;5066392;28;20025;-89
2024/01/28 07:00:52;;;;;;;15.02;9.23;;;-2.20;99.90;;;;;;5066806;28;20051;-89
2024/01/28 07:03:19;;;;;;;17.30;10.57;;;-2.10;99.90;;;;;;5064985;28;20040;-89
2024/01/28 07:05:46;;;;;;;12.05;8.95;;;-2.10;99.90;;;;;;5066965;28;20116;-91
2024/01/28 07:08:12;;;;;;;14.52;9.32;;;-2.10;99.90;;;;;;5084370;28;20084;-91
2024/01/28 07:10:40;;;;;;;16.45;9.30;;;-2.10;99.90;;;;;;5066681;28;20036;-90
2024/01/28 07:13:06;;;;;;;13.57;9.88;;;-2.10;99.90;;;;;;5082427;28;20025;-89
2024/01/28 07:15:31;;;;;;;18.65;9.65;;;-2.10;99.90;;;;;;5083493;28;20135;-89
2024/01/28 07:18:00;;;;;;;14.45;9.18;;;-2.10;99.90;;;;;;5084632;28;20024;-90
2024/01/28 07:20:27;;;;;;;13.82;9.85;;;-2.10;99.90;;;;;;5081339;28;20085;-90
2024/01/28 07:22:53;;;;;;;15.27;10.40;;;-2.10;99.90;;;;;;5066144;28;20020;-89
2024/01/28 07:25:19;;;;;;;18.95;14.52;;;-2.20;99.90;;;;;;5064277;28;20032;-90
2024/01/28 07:27:46;;;;;;;18.50;11.48;;;-2.20;99.90;;;;;;5064144;28;20033;-91
2024/01/28 07:30:12;;;;;;;18.80;14.27;;;-2.20;99.90;;;;;;5063591;28;20043;-90
2024/01/28 07:32:38;;;;;;;12.65;9.32;;;-2.20;99.90;;;;;;5093933;28;20032;-92
2024/01/28 07:35:05;;;;;;;21.42;9.90;;;-2.10;99.90;;;;;;5094765;28;20028;-90
2024/01/28 07:37:30;;;;;;;14.85;10.57;;;-2.10;99.90;;;;;;5063842;28;20036;-93
2024/01/28 07:39:56;;;;;;;19.10;10.45;;;-2.10;99.90;;;;;;5080431;28;20024;-91
2024/01/28 07:42:22;;;;;;;16.73;10.52;;;-2.10;99.90;;;;;;5080422;28;20024;-89
2024/01/28 07:44:48;;;;;;;20.13;12.88;;;-2.10;99.90;;;;;;5063098;28;20020;-90
2024/01/28 07:47:13;;;;;;;19.88;13.60;;;-2.10;99.90;;;;;;5063285;28;20035;-90
2024/01/28 07:49:42;;;;;;;16.63;11.07;;;-2.10;99.90;;;;;;5062830;28;20372;-91
2024/01/28 07:52:08;;;;;;;18.63;9.02;;;-2.00;99.90;;;;;;5080704;28;20036;-91
2024/01/28 07:54:35;;;;;;;12.57;9.60;;;-2.00;99.90;;;;;;5062913;28;20056;-90
2024/01/28 07:57:02;;;;;;;13.93;9.60;;;-2.00;99.90;;;;;;5065567;28;20113;-90
2024/01/28 07:59:28;;;;;;;17.55;11.13;;;-2.00;99.90;;;;;;5085103;28;20028;-90
2024/01/28 08:01:57;;;;;;;17.75;10.13;;;-2.00;99.90;;;;;;5076820;28;20035;-90
2024/01/28 08:04:23;;;;;;;19.27;10.85;;;-1.90;99.90;;;;;;5062811;28;20024;-90
2024/01/28 08:06:52;;;;;;;17.40;10.52;;;-1.90;99.90;;;;;;5044369;28;20018;-90
2024/01/28 08:09:18;;;;;;;15.25;9.73;;;-1.90;99.90;;;;;;5056556;28;20035;-88
2024/01/28 08:11:44;;;;;;;17.33;9.63;;;-1.90;99.90;;;;;;5079879;28;20029;-89
2024/01/28 08:14:10;;;;;;;15.10;9.70;;;-1.90;99.90;;;;;;5080674;28;20047;-89
2024/01/28 08:16:36;;;;;;;18.00;10.68;;;-1.80;99.90;;;;;;5081696;28;20016;-90
2024/01/28 08:19:04;;;;;;;17.17;10.63;;;-1.70;99.90;;;;;;5083665;28;20024;-90
2024/01/28 08:21:31;;;;;;;16.80;9.88;;;-1.60;99.90;;;;;;5062313;28;20020;-89
2024/01/28 08:23:57;;;;;;;14.57;9.40;;;-1.60;99.90;;;;;;5061154;28;20427;-89
2024/01/28 08:26:23;;;;;;;16.70;9.93;;;-1.50;99.90;;;;;;5080875;28;20490;-90
2024/01/28 08:28:49;;;;;;;19.50;11.38;;;-1.30;99.90;;;;;;5063894;28;20036;-90
2024/01/28 08:31:17;;;;;;;19.70;10.73;;;-1.30;99.90;;;;;;5079444;28;20033;-91
2024/01/28 08:33:43;;;;;;;18.65;10.85;;;-1.10;99.90;;;;;;5079791;28;20025;-90
2024/01/28 08:36:08;;;;;;;20.45;11.10;;;-1.10;99.90;;;;;;5078980;28;20027;-89
2024/01/28 08:38:35;;;;;;;15.85;10.68;;;-1.00;99.90;;;;;;5062320;28;20479;-90
2024/01/28 08:41:03;;;;;;;19.80;13.52;;;-0.90;99.90;;;;;;5057196;28;20515;-91
2024/01/28 08:43:29;;;;;;;;;;;-0.80;99.90;;;;;;5062285;28;20020;-90
2024/01/28 08:45:55;;;;;;;20.58;10.63;;;-0.80;99.90;;;;;;5062570;28;19912;-91
2024/01/28 08:48:25;;;;;;;19.10;12.70;;;-0.70;99.90;;;;;;5079648;28;20525;-91
2024/01/28 08:50:51;;;;;;;17.65;12.32;;;-0.60;99.90;;;;;;5058674;28;20028;-90
2024/01/28 08:53:17;;;;;;;21.08;10.80;;;-0.50;99.90;;;;;;5060162;28;20039;-92
2024/01/28 08:55:43;;;;;;;22.17;12.90;;;-0.50;99.90;;;;;;5059794;28;20092;-91
2024/01/28 08:58:10;;;;;;;22.95;12.95;;;-0.40;99.90;;;;;;5079488;28;20015;-92
2024/01/28 09:00:36;;;;;;;18.35;11.80;;;-0.30;99.90;;;;;;5056153;28;20496;-88
2024/01/28 09:03:02;;;;;;;20.67;11.88;;;-0.30;99.90;;;;;;5048078;28;20047;-90
2024/01/28 09:05:28;;;;;;;22.67;13.60;;;-0.20;99.90;;;;;;5077594;28;20028;-94
2024/01/28 09:07:54;;;;;;;27.73;18.80;;;-0.20;99.90;;;;;;5061490;28;20025;-88
2024/01/28 09:10:26;;;;;;;28.23;16.00;;;-0.10;99.90;;;;;;5065452;28;20040;-91
2024/01/28 09:12:52;;;;;;;24.98;14.60;;;0.10;99.90;;;;;;5046223;28;20036;-90
2024/01/28 09:15:18;;;;;;;23.10;13.20;;;0.10;99.90;;;;;;5059075;28;20121;-93
2024/01/28 09:17:43;;;;;;;24.88;15.02;;;0.10;99.90;;;;;;5082040;28;20028;-89
2024/01/28 09:20:12;;;;;;;24.33;15.23;;;0.10;99.90;;;;;;5060286;28;20029;-89
2024/01/28 09:22:39;;;;;;;22.70;13.35;;;0.20;99.90;;;;;;5078047;28;20021;-91
2024/01/28 09:25:08;;;;;;;24.45;14.38;;;0.30;99.90;;;;;;5059421;28;20033;-91
2024/01/28 09:27:34;;;;;;;22.92;13.32;;;0.30;99.90;;;;;;5057974;28;20032;-90
2024/01/28 09:30:01;;;;;;;23.27;16.00;;;0.40;99.90;;;;;;5061629;28;20033;-93
2024/01/28 09:32:27;;;;;;;23.48;15.50;;;0.40;99.90;;;;;;5081286;28;20104;-90
2024/01/28 09:34:57;;;;;;;22.77;14.77;;;0.50;99.90;;;;;;5059867;28;20075;-91
2024/01/28 09:37:23;;;;;;;25.52;14.60;;;0.60;99.90;;;;;;5059216;28;20029;-91
2024/01/28 09:39:49;;;;;;;21.27;13.38;;;0.60;99.90;;;;;;5059681;28;20021;-90
2024/01/28 09:42:23;;;;;;;23.90;12.77;;;0.70;99.90;;;;;;5064107;28;20028;-90
2024/01/28 09:44:49;;;;;;;22.40;14.98;;;0.80;99.90;;;;;;5059793;28;20449;-90
2024/01/28 09:47:19;;;;;;;23.70;13.68;;;0.90;99.90;;;;;;5063759;28;20031;-91
2024/01/28 09:49:47;;;;;;;21.90;14.65;;;1.00;99.90;;;;;;5081104;28;20427;-89
2024/01/28 09:52:31;;;;;;;;;;;;;;;;;;;;;
2024/01/28 09:55:00;;;;;;;21.73;13.75;;;1.10;99.90;;;;;;5067352;28;20108;-90
2024/01/28 09:57:27;;;;;;;29.42;13.75;;;1.20;99.90;;;;;;5051036;28;20495;-91
2024/01/28 09:59:54;;;;;;;23.10;14.50;;;1.30;99.90;;;;;;5062053;28;20021;-90
2024/01/28 10:02:22;;;;;;;32.30;22.17;;;1.40;99.90;;;;;;5079751;28;20487;-89
2024/01/28 10:04:48;;;;;;;24.15;14.07;;;1.50;99.90;;;;;;5080243;28;20029;-90
2024/01/28 10:07:15;;;;;;;24.00;15.85;;;1.60;99.90;;;;;;5047409;28;20032;-88
2024/01/28 10:09:41;;;;;;;20.25;14.18;;;1.70;99.90;;;;;;5060421;28;20052;-89
2024/01/28 10:12:09;;;;;;;25.60;15.57;;;1.80;99.90;;;;;;5059377;28;20029;-89
2024/01/28 10:14:35;;;;;;;21.02;14.70;;;2.00;99.90;;;;;;5063944;28;20587;-88
2024/01/28 10:17:01;;;;;;;20.33;14.77;;;2.10;99.90;;;;;;5053659;28;20093;-91
2024/01/28 10:19:27;;;;;;;21.98;14.68;;;2.30;99.90;;;;;;5066006;28;20503;-92
2024/01/28 10:21:55;;;;;;;20.65;13.65;;;2.40;99.90;;;;;;5058132;28;20021;-91
2024/01/28 10:24:22;;;;;;;19.75;13.05;;;2.50;99.90;;;;;;5061370;28;20031;-89
2024/01/28 10:26:48;;;;;;;25.15;14.38;;;2.70;99.90;;;;;;5058748;28;20483;-90
2024/01/28 10:29:14;;;;;;;24.83;14.95;;;3.00;99.90;;;;;;5062169;28;20031;-93
2024/01/28 10:31:40;;;;;;;20.50;14.52;;;3.10;99.90;;;;;;5055202;28;20111;-91
2024/01/28 10:34:08;;;;;;;21.25;13.25;;;3.10;96.70;;;;;;5063764;28;20056;-90
2024/01/28 10:36:34;;;;;;;17.98;14.45;;;3.30;97.30;;;;;;5080405;28;20024;-91
2024/01/28 10:39:04;;;;;;;24.17;12.98;;;3.50;97.20;;;;;;5079441;28;20044;-91
2024/01/28 10:41:32;;;;;;;20.88;13.70;;;3.80;95.20;;;;;;5079554;28;20094;-92
2024/01/28 10:44:02;;;;;;;20.35;12.65;;;4.10;95.30;;;;;;5079903;28;20146;-89
2024/01/28 10:46:39;;;;;;;23.85;13.65;;;4.00;92.70;;;;;;5062558;28;20044;-90
2024/01/28 10:49:09;;;;;;;20.33;12.98;;;4.30;90.90;;;;;;5079887;28;20021;-89
2024/01/28 10:51:39;;;;;;;17.38;11.48;;;4.60;90.00;;;;;;5061687;28;20502;-90
2024/01/28 10:54:09;;;;;;;20.35;12.98;;;4.70;89.00;;;;;;5079339;28;20033;-91
2024/01/28 10:56:37;;;;;;;22.63;13.60;;;4.90;89.00;;;;;;5061060;28;20497;-90
2024/01/28 10:59:03;;;;;;;21.70;12.32;;;4.90;87.90;;;;;;5078997;28;20120;-89
2024/01/28 11:01:30;;;;;;;18.63;12.52;;;5.00;87.00;;;;;;5082898;28;20024;-91
2024/01/28 11:03:57;;;;;;;20.20;12.45;;;5.20;86.60;;;;;;5063382;28;20024;-89
2024/01/28 11:06:26;;;;;;;20.13;12.27;;;5.40;86.00;;;;;;5079277;28;20017;-89
2024/01/28 11:08:54;;;;;;;22.35;12.43;;;5.60;83.00;;;;;;5061461;28;20097;-91
2024/01/28 11:11:21;;;;;;;21.73;11.98;;;5.90;81.80;;;;;;5060896;28;20033;-90
2024/01/28 11:13:46;;;;;;;18.52;11.25;;;5.90;79.90;;;;;;5077777;28;20710;-90
2024/01/28 11:16:12;;;;;;;21.20;12.05;;;6.00;80.80;;;;;;5077602;28;20033;-90
2024/01/28 11:18:38;;;;;;;23.20;11.73;;;6.20;80.60;;;;;;5059437;28;20028;-88
2024/01/28 11:21:13;;;;;;;23.00;16.58;;;6.30;77.80;;;;;;5078251;28;20479;-90
2024/01/28 11:23:44;;;;;;;22.75;13.23;;;6.30;77.70;;;;;;5078424;28;20025;-90
2024/01/28 11:26:17;;;;;;;17.30;12.00;;;6.40;76.90;;;;;;5078466;28;20062;-91
2024/01/28 11:28:50;;;;;;;20.77;13.48;;;6.80;76.70;;;;;;5078801;28;20063;-91
2024/01/28 11:31:25;;;;;;;15.27;10.63;;;7.30;73.80;;;;;;5060453;28;20021;-90
2024/01/28 11:33:52;;;;;;;15.48;11.13;;;7.20;71.80;;;;;;5079212;28;20041;-92
2024/01/28 11:36:30;;;;;;;16.73;10.60;;;7.10;74.00;;;;;;5061393;28;20024;-90
2024/01/28 11:39:07;;;;;;;19.75;12.18;;;7.50;70.80;;;;;;5061203;28;20052;-90
2024/01/28 11:41:40;;;;;;;17.95;10.82;;;7.60;71.10;;;;;;5079976;28;20467;-89
2024/01/28 11:44:09;;;;;;;19.52;16.45;;;7.50;71.10;;;;;;5071681;28;20040;-89
2024/01/28 11:46:36;;;;;;;17.98;12.23;;;7.70;70.50;;;;;;5063808;28;20033;-89
2024/01/28 11:49:02;;;;;;;17.00;11.38;;;8.10;68.80;;;;;;5058133;28;20088;-90
2024/01/28 11:51:31;;;;;;;16.23;11.82;;;8.30;68.10;;;;;;5058395;28;20037;-91
2024/01/28 11:54:00;;;;;;;17.27;12.65;;;8.70;68.00;;;;;;5058342;28;20403;-91
2024/01/28 11:56:35;;;;;;;19.92;12.52;;;8.40;68.90;;;;;;5058795;28;20104;-88
2024/01/28 11:59:03;;;;;;;16.52;10.63;;;8.50;66.30;;;;;;5071376;28;20556;-90
2024/01/28 12:01:28;;;;;;;15.88;10.23;;;8.70;65.20;;;;;;5078826;28;20051;-90
2024/01/28 12:03:55;;;;;;;14.65;10.38;;;8.50;64.80;;;;;;5078284;28;20383;-90
2024/01/28 12:06:26;;;;;;;17.08;10.60;;;8.80;64.90;;;;;;5078742;28;20051;-90
2024/01/28 12:08:52;;;;;;;14.15;10.73;;;9.10;65.30;;;;;;5070928;28;20070;-90
2024/01/28 12:11:23;;;;;;;14.27;9.68;;;9.30;62.40;;;;;;5063219;28;20028;-90
2024/01/28 12:13:49;;;;;;;13.98;11.40;;;9.40;63.20;;;;;;5064108;28;20025;-90
2024/01/28 12:16:19;;;;;;;12.85;10.25;;;9.40;62.50;;;;;;5083855;28;20035;-92
2024/01/28 12:18:45;;;;;;;15.77;10.50;;;9.50;61.20;;;;;;5064172;28;20115;-90
2024/01/28 12:21:21;;;;;;;17.42;12.05;;;9.60;61.50;;;;;;5063168;28;20059;-90
2024/01/28 12:23:51;;;;;;;23.33;12.32;;;9.70;59.10;;;;;;5081165;28;20024;-90
2024/01/28 12:26:17;;;;;;;14.93;9.60;;;9.90;59.30;;;;;;5063570;28;20021;-91
2024/01/28 12:28:45;;;;;;;17.48;11.88;;;10.10;59.10;;;;;;5082990;28;20421;-92
2024/01/28 12:31:11;;;;;;;17.85;11.15;;;10.70;56.20;;;;;;5081189;28;20078;-90
2024/01/28 12:33:37;;;;;;;18.80;11.98;;;10.90;52.90;;;;;;5078078;28;20028;-90
2024/01/28 12:36:03;;;;;;;17.52;12.40;;;11.10;52.90;;;;;;5059756;28;20029;-90
2024/01/28 12:38:29;;;;;;;17.08;10.68;;;11.50;52.30;;;;;;5078294;28;20029;-88